Time,TemperatureF,DewpointF,PressureIn,WindDirection,WindDirectionDegrees,WindSpeedMPH,WindSpeedGustMPH,Humidity,HourlyPrecipIn,Conditions,Clouds,dailyrainin,SoftwareType,DateUTC
2013-03-07 00:03:00,44.0,-99.9,29.96,ESE,118,6.0,8.0,-999,-99.99,,,-99.99,,2013-03-07 08:03:00,
2013-03-07 00:12:00,44.0,-99.9,29.96,ESE,109,7.0,8.0,-999,-99.99,,,-99.99,,2013-03-07 08:12:00,
2013-03-07 00:23:00,43.0,-99.9,29.96,ESE,103,8.0,9.0,-999,-99.99,,,-99.99,,2013-03-07 08:23:00,
2013-03-07 00:34:00,43.0,-99.9,29.96,East,101,7.0,8.0,-999,-99.99,,,-99.99,,2013-03-07 08:34:00,
2013-03-07 00:45:00,44.0,-99.9,29.96,East,101,6.0,8.0,-999,-99.99,,,-99.99,,2013-03-07 08:45:00,
2013-03-07 00:54:00,43.0,-99.9,29.97,ESE,112,6.0,7.0,-999,-99.99,,,-99.99,,2013-03-07 08:54:00,
2013-03-07 01:03:00,43.0,-99.9,29.97,East,97,5.0,6.0,-999,-99.99,,,-99.99,,2013-03-07 09:03:00,
2013-03-07 01:14:00,44.0,-99.9,29.97,East,93,5.0,7.0,-999,-99.99,,,-99.99,,2013-03-07 09:14:00,
2013-03-07 01:24:00,44.0,-99.9,29.97,East,100,6.0,8.0,-999,-99.99,,,-99.99,,2013-03-07 09:24:00,
2013-03-07 01:33:00,44.0,-99.9,29.97,ESE,106,6.0,9.0,-999,-99.99,,,-99.99,,2013-03-07 09:33:00,
2013-03-07 01:43:00,43.0,-99.9,29.97,ESE,102,6.0,7.0,-999,-99.99,,,-99.99,,2013-03-07 09:43:00,
2013-03-07 01:54:00,43.0,-99.9,29.97,SE,133,5.0,7.0,-999,-99.99,,,-99.99,,2013-03-07 09:54:00,
2013-03-07 02:04:00,43.0,-99.9,29.98,ESE,116,6.0,8.0,-999,-99.99,,,-99.99,,2013-03-07 10:04:00,
2013-03-07 02:14:00,43.0,-99.9,29.98,East,95,7.0,8.0,-999,-99.99,,,-99.99,,2013-03-07 10:14:00,
2013-03-07 02:24:00,43.0,-99.9,29.98,ESE,109,6.0,7.0,-999,-99.99,,,-99.99,,2013-03-07 10:24:00,
2013-03-07 02:33:00,42.0,-99.9,29.98,SE,139,6.0,8.0,-999,-99.99,,,-99.99,,2013-03-07 10:33:00,
2013-03-07 02:43:00,42.0,-99.9,29.98,ESE,105,8.0,8.0,-999,-99.99,,,-99.99,,2013-03-07 10:43:00,
2013-03-07 02:53:00,42.0,-99.9,29.98,East,101,6.0,7.0,-999,-99.99,,,-99.99,,2013-03-07 10:53:00,
2013-03-07 03:04:00,42.0,-99.9,29.98,SE,129,5.0,6.0,-999,-99.99,,,-99.99,,2013-03-07 11:04:00,
2013-03-07 03:12:00,42.0,-99.9,29.98,ESE,108,6.0,6.0,-999,-99.99,,,-99.99,,2013-03-07 11:12:00,
2013-03-07 03:23:00,42.0,-99.9,29.98,ESE,106,6.0,7.0,-999,-99.99,,,-99.99,,2013-03-07 11:23:00,
2013-03-07 03:34:00,41.0,-99.9,29.98,ESE,118,7.0,8.0,-999,-99.99,,,-99.99,,2013-03-07 11:34:00,
2013-03-07 03:44:00,41.0,-99.9,29.98,ESE,118,7.0,8.0,-999,-99.99,,,-99.99,,2013-03-07 11:44:00,
2013-03-07 03:55:00,41.0,-99.9,29.98,ESE,122,7.0,8.0,-999,-99.99,,,-99.99,,2013-03-07 11:55:00,
2013-03-07 04:04:00,41.0,-99.9,29.99,SE,126,7.0,8.0,-999,-99.99,,,-99.99,,2013-03-07 12:04:00,
2013-03-07 04:13:00,41.0,-99.9,29.99,SE,126,8.0,9.0,-999,-99.99,,,-99.99,,2013-03-07 12:13:00,
2013-03-07 04:23:00,41.0,-99.9,29.99,ESE,112,8.0,10.0,-999,-99.99,,,-99.99,,2013-03-07 12:23:00,
2013-03-07 04:34:00,40.0,-99.9,29.99,ESE,112,7.0,9.0,-999,-99.99,,,-99.99,,2013-03-07 12:34:00,
2013-03-07 04:43:00,40.0,-99.9,29.99,ESE,113,9.0,9.0,-999,-99.99,,,-99.99,,2013-03-07 12:43:00,
2013-03-07 04:53:00,40.0,-99.9,30.00,ESE,119,8.0,9.0,-999,-99.99,,,-99.99,,2013-03-07 12:53:00,
2013-03-07 05:03:00,41.0,-99.9,30.00,ESE,104,7.0,8.0,-999,-99.99,,,-99.99,,2013-03-07 13:03:00,
2013-03-07 05:13:00,41.0,-99.9,30.00,ESE,112,7.0,8.0,-999,-99.99,,,-99.99,,2013-03-07 13:13:00,
2013-03-07 05:23:00,40.0,-99.9,30.00,ESE,115,8.0,9.0,-999,-99.99,,,-99.99,,2013-03-07 13:23:00,
2013-03-07 05:33:00,40.0,-99.9,30.01,ESE,115,9.0,10.0,-999,-99.99,,,-99.99,,2013-03-07 13:33:00,
2013-03-07 05:42:00,40.0,-99.9,30.01,ESE,122,9.0,10.0,-999,-99.99,,,-99.99,,2013-03-07 13:42:00,
2013-03-07 05:53:00,40.0,-99.9,30.01,ESE,122,8.0,9.0,-999,-99.99,,,-99.99,,2013-03-07 13:53:00,
2013-03-07 06:02:00,39.0,-99.9,30.01,ESE,103,8.0,10.0,-999,-99.99,,,-99.99,,2013-03-07 14:02:00,
2013-03-07 06:12:00,39.0,-99.9,30.01,ESE,118,10.0,11.0,-999,-99.99,,,-99.99,,2013-03-07 14:12:00,
2013-03-07 06:23:00,39.0,-99.9,30.01,ESE,117,9.0,11.0,-999,-99.99,,,-99.99,,2013-03-07 14:23:00,
2013-03-07 06:34:00,39.0,-99.9,30.01,ESE,120,9.0,11.0,-999,-99.99,,,-99.99,,2013-03-07 14:34:00,
2013-03-07 06:43:00,39.0,-99.9,30.02,ESE,114,9.0,10.0,-999,-99.99,,,-99.99,,2013-03-07 14:43:00,
2013-03-07 06:54:00,39.0,-99.9,30.02,ESE,117,9.0,11.0,-999,-99.99,,,-99.99,,2013-03-07 14:54:00,
2013-03-07 07:03:00,39.0,-99.9,30.02,ESE,110,8.0,9.0,-999,-99.99,,,-99.99,,2013-03-07 15:03:00,
2013-03-07 07:13:00,39.0,-99.9,30.02,ESE,111,8.0,9.0,-999,-99.99,,,-99.99,,2013-03-07 15:13:00,
2013-03-07 07:23:00,39.0,-99.9,30.02,ESE,112,9.0,11.0,-999,-99.99,,,-99.99,,2013-03-07 15:23:00,
2013-03-07 07:33:00,39.0,-99.9,30.02,ESE,113,7.0,9.0,-999,-99.99,,,-99.99,,2013-03-07 15:33:00,
2013-03-07 07:43:00,39.0,-99.9,30.02,ESE,109,8.0,9.0,-999,-99.99,,,-99.99,,2013-03-07 15:43:00,
2013-03-07 07:53:00,39.0,-99.9,30.02,ESE,114,8.0,9.0,-999,-99.99,,,-99.99,,2013-03-07 15:53:00,
2013-03-07 08:03:00,39.0,-99.9,30.03,ESE,121,9.0,10.0,-999,-99.99,,,-99.99,,2013-03-07 16:03:00,
2013-03-07 08:13:00,39.0,-99.9,30.03,ESE,108,9.0,10.0,-999,-99.99,,,-99.99,,2013-03-07 16:13:00,
2013-03-07 08:24:00,40.0,-99.9,30.03,ESE,109,9.0,11.0,-999,-99.99,,,-99.99,,2013-03-07 16:24:00,
2013-03-07 08:33:00,40.0,-99.9,30.03,ESE,112,8.0,9.0,-999,-99.99,,,-99.99,,2013-03-07 16:33:00,
2013-03-07 08:43:00,41.0,-99.9,30.04,ESE,105,9.0,10.0,-999,-99.99,,,-99.99,,2013-03-07 16:43:00,
2013-03-07 08:53:00,41.0,-99.9,30.04,ESE,108,9.0,10.0,-999,-99.99,,,-99.99,,2013-03-07 16:53:00,
2013-03-07 09:03:00,42.0,-99.9,30.04,ESE,105,8.0,10.0,-999,-99.99,,,-99.99,,2013-03-07 17:03:00,
2013-03-07 09:12:00,42.0,-99.9,30.04,ESE,106,8.0,11.0,-999,-99.99,,,-99.99,,2013-03-07 17:12:00,
2013-03-07 09:23:00,43.0,-99.9,30.04,ESE,105,8.0,10.0,-999,-99.99,,,-99.99,,2013-03-07 17:23:00,
2013-03-07 09:34:00,43.0,-99.9,30.04,ESE,113,7.0,8.0,-999,-99.99,,,-99.99,,2013-03-07 17:34:00,
2013-03-07 09:44:00,44.0,-99.9,30.04,ESE,109,7.0,9.0,-999,-99.99,,,-99.99,,2013-03-07 17:44:00,
2013-03-07 09:55:00,44.0,-99.9,30.04,ESE,114,6.0,8.0,-999,-99.99,,,-99.99,,2013-03-07 17:55:00,
2013-03-07 10:04:00,44.0,-99.9,30.04,SE,130,6.0,8.0,-999,-99.99,,,-99.99,,2013-03-07 18:04:00,
2013-03-07 10:13:00,45.0,-99.9,30.04,ESE,109,5.0,7.0,-999,-99.99,,,-99.99,,2013-03-07 18:13:00,
2013-03-07 10:22:00,46.0,-99.9,30.04,SE,129,5.0,6.0,-999,-99.99,,,-99.99,,2013-03-07 18:22:00,
2013-03-07 10:33:00,45.0,-99.9,30.04,SE,142,4.0,5.0,-999,-99.99,,,-99.99,,2013-03-07 18:33:00,
2013-03-07 10:43:00,46.0,-99.9,30.04,SE,133,4.0,5.0,-999,-99.99,,,-99.99,,2013-03-07 18:43:00,
2013-03-07 10:53:00,47.0,-99.9,30.04,ESE,116,3.0,3.0,-999,-99.99,,,-99.99,,2013-03-07 18:53:00,
2013-03-07 11:12:00,48.0,-99.9,30.04,North,4,2.0,2.0,-999,-99.99,,,-99.99,,2013-03-07 19:12:00,
2013-03-07 11:24:00,48.0,-99.9,30.04,North,5,0.0,2.0,-999,-99.99,,,-99.99,,2013-03-07 19:24:00,
2013-03-07 11:35:00,48.0,-99.9,30.04,WSW,240,4.0,6.0,-999,-99.99,,,-99.99,,2013-03-07 19:35:00,
2013-03-07 11:44:00,48.0,-99.9,30.04,West,276,6.0,6.0,-999,-99.99,,,-99.99,,2013-03-07 19:44:00,
2013-03-07 11:53:00,48.0,-99.9,30.04,West,280,5.0,6.0,-999,-99.99,,,-99.99,,2013-03-07 19:53:00,
2013-03-07 12:02:00,48.0,-99.9,30.04,West,281,8.0,10.0,-999,-99.99,,,-99.99,,2013-03-07 20:02:00,
2013-03-07 12:14:00,48.0,-99.9,30.04,West,277,7.0,11.0,-999,-99.99,,,-99.99,,2013-03-07 20:14:00,
2013-03-07 12:23:00,48.0,-99.9,30.05,WNW,296,7.0,11.0,-999,-99.99,,,-99.99,,2013-03-07 20:23:00,
2013-03-07 12:34:00,48.0,-99.9,30.05,WNW,288,6.0,10.0,-999,-99.99,,,-99.99,,2013-03-07 20:34:00,
2013-03-07 12:43:00,48.0,-99.9,30.04,WNW,288,7.0,9.0,-999,-99.99,,,-99.99,,2013-03-07 20:43:00,
2013-03-07 12:54:00,48.0,-99.9,30.04,West,279,5.0,7.0,-999,-99.99,,,-99.99,,2013-03-07 20:54:00,
2013-03-07 13:03:00,48.0,-99.9,30.04,WNW,287,6.0,8.0,-999,-99.99,,,-99.99,,2013-03-07 21:03:00,
2013-03-07 13:13:00,48.0,-99.9,30.04,WNW,295,6.0,8.0,-999,-99.99,,,-99.99,,2013-03-07 21:13:00,
2013-03-07 13:23:00,48.0,-99.9,30.04,NW,313,6.0,8.0,-999,-99.99,,,-99.99,,2013-03-07 21:23:00,
2013-03-07 13:33:00,49.0,-99.9,30.04,WNW,300,4.0,8.0,-999,-99.99,,,-99.99,,2013-03-07 21:33:00,
2013-03-07 13:43:00,49.0,-99.9,30.04,WNW,301,4.0,7.0,-999,-99.99,,,-99.99,,2013-03-07 21:43:00,
2013-03-07 13:53:00,49.0,-99.9,30.03,West,279,7.0,8.0,-999,-99.99,,,-99.99,,2013-03-07 21:53:00,
2013-03-07 14:02:00,49.0,-99.9,30.03,WNW,285,6.0,9.0,-999,-99.99,,,-99.99,,2013-03-07 22:02:00,
2013-03-07 14:12:00,48.0,-99.9,30.03,WNW,282,7.0,9.0,-999,-99.99,,,-99.99,,2013-03-07 22:12:00,
2013-03-07 14:23:00,48.0,-99.9,30.03,WNW,285,7.0,11.0,-999,-99.99,,,-99.99,,2013-03-07 22:23:00,
2013-03-07 14:33:00,48.0,-99.9,30.03,WNW,286,5.0,10.0,-999,-99.99,,,-99.99,,2013-03-07 22:33:00,
2013-03-07 14:44:00,48.0,-99.9,30.03,WNW,287,8.0,10.0,-999,-99.99,,,-99.99,,2013-03-07 22:44:00,
2013-03-07 14:55:00,49.0,-99.9,30.03,WNW,291,4.0,6.0,-999,-99.99,,,-99.99,,2013-03-07 22:55:00,
2013-03-07 15:03:00,49.0,-99.9,30.02,WNW,285,6.0,8.0,-999,-99.99,,,-99.99,,2013-03-07 23:03:00,
2013-03-07 15:13:00,49.0,-99.9,30.02,WNW,290,6.0,9.0,-999,-99.99,,,-99.99,,2013-03-07 23:13:00,
2013-03-07 15:22:00,49.0,-99.9,30.02,WNW,292,6.0,9.0,-999,-99.99,,,-99.99,,2013-03-07 23:22:00,
2013-03-07 15:35:00,49.0,-99.9,30.02,WNW,293,6.0,9.0,-999,-99.99,,,-99.99,,2013-03-07 23:35:00,
2013-03-07 15:44:00,48.0,-99.9,30.02,WNW,288,8.0,11.0,-999,-99.99,,,-99.99,,2013-03-07 23:44:00,
2013-03-07 15:54:00,48.0,-99.9,30.02,NW,306,7.0,11.0,-999,-99.99,,,-99.99,,2013-03-07 23:54:00,
2013-03-07 16:05:00,48.0,-99.9,30.03,NW,307,7.0,11.0,-999,-99.99,,,-99.99,,2013-03-08 00:05:00,
2013-03-07 16:13:00,48.0,-99.9,30.03,WNW,302,8.0,12.0,-999,-99.99,,,-99.99,,2013-03-08 00:13:00,
2013-03-07 16:23:00,48.0,-99.9,30.03,NW,307,6.0,12.0,-999,-99.99,,,-99.99,,2013-03-08 00:23:00,
2013-03-07 16:35:00,48.0,-99.9,30.03,NW,311,8.0,15.0,-999,-99.99,,,-99.99,,2013-03-08 00:35:00,
2013-03-07 16:44:00,48.0,-99.9,30.03,NW,315,11.0,15.0,-999,-99.99,,,-99.99,,2013-03-08 00:44:00,
2013-03-07 16:54:00,47.0,-99.9,30.03,NW,323,13.0,15.0,-999,-99.99,,,-99.99,,2013-03-08 00:54:00,
2013-03-07 17:02:00,47.0,-99.9,30.03,NNW,330,13.0,17.0,-999,-99.99,,,-99.99,,2013-03-08 01:02:00,
2013-03-07 17:12:00,47.0,-99.9,30.03,NW,326,13.0,16.0,-999,-99.99,,,-99.99,,2013-03-08 01:12:00,
2013-03-07 17:22:00,47.0,-99.9,30.03,NNW,328,12.0,15.0,-999,-99.99,,,-99.99,,2013-03-08 01:22:00,
2013-03-07 17:33:00,48.0,-99.9,30.03,NNW,345,12.0,15.0,-999,-99.99,,,-99.99,,2013-03-08 01:33:00,
2013-03-07 17:42:00,48.0,-99.9,30.03,NNW,348,12.0,15.0,-999,-99.99,,,-99.99,,2013-03-08 01:42:00,
2013-03-07 17:52:00,48.0,-99.9,30.02,NNW,335,13.0,16.0,-999,-99.99,,,-99.99,,2013-03-08 01:52:00,
2013-03-07 18:02:00,48.0,-99.9,30.02,NNW,340,12.0,15.0,-999,-99.99,,,-99.99,,2013-03-08 02:02:00,
2013-03-07 18:12:00,47.0,-99.9,30.03,NNW,342,12.0,15.0,-999,-99.99,,,-99.99,,2013-03-08 02:12:00,
2013-03-07 18:22:00,47.0,-99.9,30.03,North,349,10.0,12.0,-999,-99.99,,,-99.99,,2013-03-08 02:22:00,
2013-03-07 18:32:00,47.0,-99.9,30.03,North,349,10.0,13.0,-999,-99.99,,,-99.99,,2013-03-08 02:32:00,
2013-03-07 18:42:00,47.0,-99.9,30.03,North,355,8.0,10.0,-999,-99.99,,,-99.99,,2013-03-08 02:42:00,
2013-03-07 18:53:00,47.0,-99.9,30.03,North,7,6.0,9.0,-999,-99.99,,,-99.99,,2013-03-08 02:53:00,
2013-03-07 19:02:00,46.0,-99.9,30.03,NE,34,1.0,2.0,-999,-99.99,,,-99.99,,2013-03-08 03:02:00,
2013-03-07 19:12:00,46.0,-99.9,30.03,ENE,74,2.0,3.0,-999,-99.99,,,-99.99,,2013-03-08 03:12:00,
2013-03-07 19:22:00,46.0,-99.9,30.03,ENE,70,3.0,3.0,-999,-99.99,,,-99.99,,2013-03-08 03:22:00,
2013-03-07 19:33:00,46.0,-99.9,30.04,ENE,71,2.0,3.0,-999,-99.99,,,-99.99,,2013-03-08 03:33:00,
2013-03-07 19:43:00,45.0,-99.9,30.04,East,86,3.0,4.0,-999,-99.99,,,-99.99,,2013-03-08 03:43:00,
2013-03-07 19:53:00,45.0,-99.9,30.04,East,97,4.0,5.0,-999,-99.99,,,-99.99,,2013-03-08 03:53:00,
2013-03-07 20:02:00,44.0,-99.9,30.04,ENE,76,4.0,5.0,-999,-99.99,,,-99.99,,2013-03-08 04:02:00,
2013-03-07 20:12:00,44.0,-99.9,30.04,East,92,5.0,6.0,-999,-99.99,,,-99.99,,2013-03-08 04:12:00,
2013-03-07 20:22:00,44.0,-99.9,30.04,East,99,5.0,7.0,-999,-99.99,,,-99.99,,2013-03-08 04:22:00,
2013-03-07 20:32:00,44.0,-99.9,30.04,East,87,2.0,4.0,-999,-99.99,,,-99.99,,2013-03-08 04:32:00,
2013-03-07 20:42:00,43.0,-99.9,30.04,South,178,1.0,2.0,-999,-99.99,,,-99.99,,2013-03-08 04:42:00,
2013-03-07 20:52:00,43.0,-99.9,30.04,ENE,63,1.0,2.0,-999,-99.99,,,-99.99,,2013-03-08 04:52:00,
2013-03-07 21:02:00,43.0,-99.9,30.04,North,8,1.0,2.0,-999,-99.99,,,-99.99,,2013-03-08 05:02:00,
2013-03-07 21:12:00,42.0,-99.9,30.04,East,94,2.0,3.0,-999,-99.99,,,-99.99,,2013-03-08 05:12:00,
2013-03-07 21:22:00,42.0,-99.9,30.04,North,10,3.0,3.0,-999,-99.99,,,-99.99,,2013-03-08 05:22:00,
2013-03-07 21:33:00,42.0,-99.9,30.04,ESE,122,2.0,3.0,-999,-99.99,,,-99.99,,2013-03-08 05:33:00,
2013-03-07 21:42:00,42.0,-99.9,30.04,East,101,3.0,4.0,-999,-99.99,,,-99.99,,2013-03-08 05:42:00,
2013-03-07 21:52:00,41.0,-99.9,30.04,East,91,4.0,4.0,-999,-99.99,,,-99.99,,2013-03-08 05:52:00,
2013-03-07 22:02:00,42.0,-99.9,30.04,East,87,4.0,5.0,-999,-99.99,,,-99.99,,2013-03-08 06:02:00,
2013-03-07 22:11:00,42.0,-99.9,30.04,East,96,4.0,5.0,-999,-99.99,,,-99.99,,2013-03-08 06:11:00,
2013-03-07 22:22:00,41.0,-99.9,30.04,ESE,105,5.0,5.0,-999,-99.99,,,-99.99,,2013-03-08 06:22:00,
2013-03-07 22:32:00,41.0,-99.9,30.04,East,101,6.0,6.0,-999,-99.99,,,-99.99,,2013-03-08 06:32:00,
2013-03-07 22:42:00,40.0,-99.9,30.04,East,91,6.0,7.0,-999,-99.99,,,-99.99,,2013-03-08 06:42:00,
2013-03-07 22:52:00,40.0,-99.9,30.04,ESE,102,4.0,6.0,-999,-99.99,,,-99.99,,2013-03-08 06:52:00,
2013-03-07 23:01:00,41.0,-99.9,30.04,East,87,3.0,6.0,-999,-99.99,,,-99.99,,2013-03-08 07:01:00,
2013-03-07 23:11:00,41.0,-99.9,30.04,ESE,109,4.0,5.0,-999,-99.99,,,-99.99,,2013-03-08 07:11:00,
2013-03-07 23:22:00,41.0,-99.9,30.04,East,88,4.0,6.0,-999,-99.99,,,-99.99,,2013-03-08 07:22:00,
2013-03-07 23:32:00,40.0,-99.9,30.04,East,97,5.0,7.0,-999,-99.99,,,-99.99,,2013-03-08 07:32:00,
2013-03-07 23:42:00,40.0,-99.9,30.04,East,87,5.0,6.0,-999,-99.99,,,-99.99,,2013-03-08 07:42:00,
2013-03-07 23:52:00,40.0,-99.9,30.04,ENE,78,4.0,5.0,-999,-99.99,,,-99.99,,2013-03-08 07:52:00,